createdAt,value
2017-10-27T00:01:25.556Z,101016.65
2017-10-27T00:03:53.879Z,101022.31
2017-10-27T00:06:21.796Z,101016.98
2017-10-27T00:08:49.701Z,101009.98
2017-10-27T00:11:17.621Z,101019.58
2017-10-27T00:13:45.620Z,101015.19
2017-10-27T00:16:13.994Z,101017.31
2017-10-27T00:18:42.332Z,101012.52
2017-10-27T00:21:10.262Z,101009.89
2017-10-27T00:23:38.178Z,100997.66
2017-10-27T00:26:06.258Z,101000.67
2017-10-27T00:28:34.174Z,100994.13
2017-10-27T00:31:02.106Z,100985.34
2017-10-27T00:33:30.417Z,100991.05
2017-10-27T00:35:58.338Z,100984.86
2017-10-27T00:38:26.266Z,100995.81
2017-10-27T00:40:54.272Z,100990.59
2017-10-27T00:43:22.236Z,100987.55
2017-10-27T00:45:50.172Z,100989.77
2017-10-27T00:48:18.094Z,100981.00
2017-10-27T00:50:46.455Z,100979.75
2017-10-27T00:53:14.431Z,100977.14
2017-10-27T00:55:42.357Z,100975.47
2017-10-27T00:58:10.269Z,100959.64
2017-10-27T01:00:38.216Z,100962.17
2017-10-27T01:03:06.151Z,100961.27
2017-10-27T01:05:34.077Z,100963.81
2017-10-27T01:08:01.997Z,100962.06
2017-10-27T01:10:30.005Z,100951.58
2017-10-27T01:12:57.976Z,100941.96
2017-10-27T01:15:25.902Z,100948.87
2017-10-27T01:17:53.826Z,100943.15
2017-10-27T01:20:22.149Z,100954.48
2017-10-27T01:22:50.065Z,100941.42
2017-10-27T01:25:18.405Z,100949.76
2017-10-27T01:27:46.407Z,100949.41
2017-10-27T01:30:14.321Z,100934.63
2017-10-27T01:32:42.240Z,100929.46
2017-10-27T01:35:10.173Z,100926.81
2017-10-27T01:37:38.090Z,100918.07
2017-10-27T01:40:06.417Z,100922.75
2017-10-27T01:42:34.349Z,100921.84
2017-10-27T01:45:02.278Z,100929.23
2017-10-27T01:47:30.232Z,100917.84
2017-10-27T01:49:58.156Z,100910.39
2017-10-27T01:52:26.076Z,100908.27
2017-10-27T01:54:54.000Z,100901.30
2017-10-27T01:57:22.049Z,100903.98
2017-10-27T01:59:50.366Z,100904.00
2017-10-27T02:02:18.380Z,100901.03
2017-10-27T02:04:46.359Z,100904.55
2017-10-27T02:07:14.283Z,100904.48
2017-10-27T02:09:42.209Z,100890.08
2017-10-27T02:12:10.524Z,100890.95
2017-10-27T02:14:38.442Z,100878.69
2017-10-27T02:17:06.778Z,100879.96
2017-10-27T02:19:34.683Z,100880.89
2017-10-27T02:22:03.021Z,100889.67
2017-10-27T02:24:30.933Z,100879.19
2017-10-27T02:26:58.857Z,100874.83
2017-10-27T02:29:26.787Z,100864.81
2017-10-27T02:31:54.721Z,100860.95
2017-10-27T02:34:22.807Z,100863.95
2017-10-27T02:36:51.117Z,100861.75
2017-10-27T02:39:19.040Z,100863.94
2017-10-27T02:41:46.949Z,100859.61
2017-10-27T02:44:14.861Z,100861.82
2017-10-27T02:46:42.819Z,100861.78
2017-10-27T02:49:10.740Z,100863.96
2017-10-27T02:51:39.067Z,100847.73
2017-10-27T02:54:06.986Z,100844.66
2017-10-27T02:56:35.316Z,100845.53
2017-10-27T02:59:03.217Z,100829.73
2017-10-27T03:01:31.534Z,100831.47
2017-10-27T03:03:59.453Z,100824.88
2017-10-27T03:06:27.460Z,100832.33
2017-10-27T03:08:55.476Z,100827.94
2017-10-27T03:11:23.464Z,100811.39
2017-10-27T03:13:51.396Z,100820.53
2017-10-27T03:16:19.401Z,100810.44
2017-10-27T03:18:47.316Z,100806.95
2017-10-27T03:21:15.241Z,100809.20
2017-10-27T03:23:43.549Z,100803.93
2017-10-27T03:26:11.585Z,100804.33
2017-10-27T03:28:39.494Z,100798.64
2017-10-27T03:31:07.449Z,100800.39
2017-10-27T03:33:35.381Z,100800.83
2017-10-27T03:36:03.301Z,100794.30
2017-10-27T03:38:31.331Z,100796.05
2017-10-27T03:40:59.678Z,100801.31
2017-10-27T03:43:27.602Z,100791.27
2017-10-27T03:45:55.535Z,100799.53
2017-10-27T03:48:23.453Z,100791.67
2017-10-27T03:50:51.464Z,100788.11
2017-10-27T03:53:19.432Z,100784.64
2017-10-27T03:55:47.361Z,100797.25
2017-10-27T03:58:15.373Z,100782.80
2017-10-27T04:00:43.308Z,100785.85
2017-10-27T04:03:11.240Z,100789.31
2017-10-27T04:05:39.552Z,100788.83
2017-10-27T04:08:07.563Z,100792.33
2017-10-27T04:10:35.487Z,100792.31
2017-10-27T04:13:03.407Z,100789.31
2017-10-27T04:15:31.325Z,100786.29
2017-10-27T04:17:59.236Z,100789.77
2017-10-27T04:20:27.168Z,100784.44
2017-10-27T04:22:55.082Z,100784.42
2017-10-27T04:25:23.586Z,100784.02
2017-10-27T04:27:51.500Z,100779.19
2017-10-27T04:30:19.484Z,100791.38
2017-10-27T04:32:47.395Z,100787.91
2017-10-27T04:35:15.317Z,100779.55
2017-10-27T04:37:43.284Z,100779.97
2017-10-27T04:40:11.233Z,100779.15
2017-10-27T04:42:39.145Z,100774.83
2017-10-27T04:45:07.465Z,100782.30
2017-10-27T04:47:35.497Z,100780.55
2017-10-27T04:50:03.463Z,100779.74
2017-10-27T04:52:31.405Z,100779.40
2017-10-27T04:54:59.330Z,100782.48
2017-10-27T04:57:27.265Z,100780.72
2017-10-27T04:59:55.736Z,100782.51
2017-10-27T05:02:23.674Z,100778.00
2017-10-27T05:04:51.604Z,100780.16
2017-10-27T05:07:19.639Z,100769.25
2017-10-27T05:09:47.560Z,100774.52
2017-10-27T05:12:15.490Z,100764.05
2017-10-27T05:14:43.425Z,100771.38
2017-10-27T05:17:17.073Z,100772.59
2017-10-27T05:19:50.427Z,100764.58
2017-10-27T05:22:24.044Z,100761.85
2017-10-27T05:24:51.970Z,100755.64
2017-10-27T05:27:19.905Z,100762.98
2017-10-27T05:29:48.224Z,100770.41
2017-10-27T05:32:16.176Z,100769.97
2017-10-27T05:34:44.121Z,100772.11
2017-10-27T05:37:12.068Z,100773.91
2017-10-27T05:39:39.984Z,100764.39
2017-10-27T05:42:08.008Z,100770.52
2017-10-27T05:44:35.926Z,100774.95
2017-10-27T05:47:03.844Z,100770.61
2017-10-27T05:49:32.509Z,100770.73
2017-10-27T05:52:00.490Z,100775.52
2017-10-27T05:54:28.403Z,100773.72
2017-10-27T05:56:56.337Z,100780.67
2017-10-27T05:59:24.642Z,100772.46
2017-10-27T06:01:52.674Z,100782.92
2017-10-27T06:04:20.639Z,100781.21
2017-10-27T06:06:48.600Z,100782.56
2017-10-27T06:09:16.581Z,100783.89
2017-10-27T06:11:44.561Z,100778.77
2017-10-27T06:14:12.933Z,100775.70
2017-10-27T06:16:40.864Z,100779.96
2017-10-27T06:19:08.865Z,100782.53
2017-10-27T06:21:36.838Z,100781.66
2017-10-27T06:24:04.771Z,100785.13
2017-10-27T06:26:32.780Z,100779.52
2017-10-27T06:29:00.700Z,100785.59
2017-10-27T06:31:28.654Z,100791.70
2017-10-27T06:33:56.570Z,100786.02
2017-10-27T06:36:24.474Z,100784.32
2017-10-27T06:38:52.402Z,100784.69
2017-10-27T06:41:20.357Z,100788.91
2017-10-27T06:43:48.284Z,100794.13
2017-10-27T06:46:16.204Z,100802.83
2017-10-27T06:48:44.118Z,100780.55
2017-10-27T06:51:12.056Z,100794.91
2017-10-27T06:53:39.997Z,100799.80
2017-10-27T06:56:07.972Z,100807.71
2017-10-27T06:58:35.968Z,100798.21
2017-10-27T07:01:03.885Z,100805.23
2017-10-27T07:03:31.906Z,100800.80
2017-10-27T07:06:00.234Z,100801.61
2017-10-27T07:08:28.190Z,100806.44
2017-10-27T07:10:56.198Z,100805.88
2017-10-27T07:13:24.283Z,100803.94
2017-10-27T07:15:52.207Z,100800.81
2017-10-27T07:18:20.125Z,100799.08
2017-10-27T07:20:48.184Z,100792.73
2017-10-27T07:23:16.102Z,100799.55
2017-10-27T07:25:44.116Z,100786.55
2017-10-27T07:28:12.095Z,100789.70
2017-10-27T07:30:40.069Z,100794.72
2017-10-27T07:33:07.975Z,100807.87
2017-10-27T07:35:35.889Z,100805.59
2017-10-27T07:38:03.859Z,100803.59
2017-10-27T07:40:31.838Z,100800.02
2017-10-27T07:42:59.766Z,100803.02
2017-10-27T07:45:27.826Z,100806.91
2017-10-27T07:47:55.747Z,100808.20
2017-10-27T07:50:23.665Z,100804.64
2017-10-27T07:52:51.584Z,100818.56
2017-10-27T07:55:19.509Z,100814.65
2017-10-27T07:57:47.444Z,100813.39
2017-10-27T08:00:15.782Z,100810.39
2017-10-27T08:02:43.703Z,100809.55
2017-10-27T08:05:11.630Z,100810.86
2017-10-27T08:07:39.555Z,100815.19
2017-10-27T08:10:07.468Z,100813.33
2017-10-27T08:12:35.383Z,100818.92
2017-10-27T08:15:03.398Z,100816.30
2017-10-27T08:17:31.366Z,100820.64
2017-10-27T08:19:59.277Z,100824.11
2017-10-27T08:22:27.181Z,100824.06
2017-10-27T08:24:55.087Z,100834.47
2017-10-27T08:27:23.007Z,100829.21
2017-10-27T08:29:50.919Z,100833.66
2017-10-27T08:32:18.829Z,100809.31
2017-10-27T08:34:46.741Z,100820.25
2017-10-27T08:37:14.679Z,100824.25
2017-10-27T08:39:42.679Z,100824.40
2017-10-27T08:42:22.424Z,100822.69
2017-10-27T08:44:50.337Z,100819.75
2017-10-27T08:47:18.248Z,100825.96
2017-10-27T08:49:46.232Z,100822.48
2017-10-27T08:52:14.145Z,100826.45
2017-10-27T08:54:42.043Z,100817.22
2017-10-27T08:57:09.968Z,100825.80
2017-10-27T08:59:38.265Z,100828.86
2017-10-27T09:02:06.286Z,100823.19
2017-10-27T09:04:34.201Z,100819.66
2017-10-27T09:07:02.184Z,100822.73
2017-10-27T09:09:30.448Z,100827.44
2017-10-27T09:11:58.465Z,100826.05
2017-10-27T09:14:26.373Z,100825.66
2017-10-27T09:16:54.298Z,100820.05
2017-10-27T09:19:22.244Z,100832.77
2017-10-27T09:21:50.176Z,100828.84
2017-10-27T09:24:18.104Z,100839.75
2017-10-27T09:26:46.026Z,100833.64
2017-10-27T09:29:13.933Z,100846.23
2017-10-27T09:31:41.849Z,100847.00
2017-10-27T09:34:09.763Z,100849.97
2017-10-27T09:36:37.741Z,100847.19
2017-10-27T09:39:05.656Z,100853.22
2017-10-27T09:41:33.573Z,100851.78
2017-10-27T09:44:01.603Z,100849.20
2017-10-27T09:46:29.513Z,100857.10
2017-10-27T09:48:57.439Z,100858.52
2017-10-27T09:51:25.454Z,100867.36
2017-10-27T09:53:53.356Z,100862.69
2017-10-27T09:56:21.295Z,100863.39
2017-10-27T09:58:49.202Z,100859.95
2017-10-27T10:01:17.136Z,100866.41
2017-10-27T10:03:45.040Z,100856.36
2017-10-27T10:06:12.987Z,100869.97
2017-10-27T10:08:41.366Z,100875.17
2017-10-27T10:11:09.312Z,100871.66
2017-10-27T10:13:37.283Z,100883.93
2017-10-27T10:16:05.198Z,100884.84
2017-10-27T10:18:33.107Z,100880.34
2017-10-27T10:21:01.012Z,100881.58
2017-10-27T10:23:29.351Z,100892.06
2017-10-27T10:25:57.427Z,100897.76
2017-10-27T10:28:25.395Z,100906.09
2017-10-27T10:30:53.334Z,100900.44
2017-10-27T10:33:21.256Z,100921.86
2017-10-27T10:35:49.179Z,100920.07
2017-10-27T10:38:17.098Z,100934.05
2017-10-27T10:40:45.416Z,100937.09
2017-10-27T10:43:13.319Z,100943.80
2017-10-27T10:45:41.238Z,100941.70
2017-10-27T10:48:09.163Z,100954.47
2017-10-27T10:50:37.176Z,100960.96
2017-10-27T10:53:05.123Z,100956.54
2017-10-27T10:55:33.427Z,100958.91
2017-10-27T10:58:01.391Z,100964.05
2017-10-27T11:00:29.299Z,100963.22
2017-10-27T11:02:57.202Z,100950.20
2017-10-27T11:05:25.552Z,100957.59
2017-10-27T11:07:53.513Z,100961.03
2017-10-27T11:10:21.484Z,100963.58
2017-10-27T11:12:49.406Z,100964.53
2017-10-27T11:15:17.420Z,100965.56
2017-10-27T11:17:45.410Z,100956.42
2017-10-27T11:20:13.360Z,100955.66
2017-10-27T11:22:41.268Z,100961.97
2017-10-27T11:25:09.627Z,100967.30
2017-10-27T11:27:37.604Z,100974.80
2017-10-27T11:30:05.960Z,100980.50
2017-10-27T11:32:33.928Z,100981.38
2017-10-27T11:35:01.838Z,100987.55
2017-10-27T11:37:29.747Z,100984.94
2017-10-27T11:39:57.740Z,100988.94
2017-10-27T11:42:25.667Z,100998.22
2017-10-27T11:44:53.581Z,100996.44
2017-10-27T11:47:21.521Z,100994.19
2017-10-27T11:49:49.509Z,100995.55
2017-10-27T11:52:17.453Z,101015.70
2017-10-27T11:54:45.396Z,101028.85
2017-10-27T11:57:13.332Z,101029.72
2017-10-27T11:59:41.690Z,101011.28
2017-10-27T12:02:09.599Z,101028.36
2017-10-27T12:04:37.556Z,101048.48
2017-10-27T12:07:05.964Z,101036.22
2017-10-27T12:09:33.876Z,101033.56
2017-10-27T12:12:01.797Z,101041.03
2017-10-27T12:14:29.824Z,101043.67
2017-10-27T12:16:57.746Z,101043.68
2017-10-27T12:19:25.658Z,101038.89
2017-10-27T12:21:53.578Z,101044.58
2017-10-27T12:24:21.494Z,101059.45
2017-10-27T12:26:49.447Z,101064.22
2017-10-27T12:29:17.770Z,101067.59
2017-10-27T12:31:45.672Z,101066.53
2017-10-27T12:34:13.591Z,101090.89
2017-10-27T12:36:41.951Z,101090.19
2017-10-27T12:39:09.851Z,101084.92
2017-10-27T12:41:37.879Z,101097.95
2017-10-27T12:44:05.775Z,101097.91
2017-10-27T12:46:34.178Z,101100.53
2017-10-27T12:49:02.094Z,101096.68
2017-10-27T12:51:30.066Z,101101.56
2017-10-27T12:53:58.019Z,101096.42
2017-10-27T12:56:25.940Z,101099.63
2017-10-27T12:58:53.848Z,101111.00
2017-10-27T13:01:21.770Z,101113.60
2017-10-27T13:03:49.688Z,101107.88
2017-10-27T13:06:17.654Z,101111.27
2017-10-27T13:08:45.638Z,101126.47
2017-10-27T13:11:13.543Z,101127.84
2017-10-27T13:13:41.457Z,101139.88
2017-10-27T13:16:09.445Z,101147.29
2017-10-27T13:18:37.356Z,101161.48
2017-10-27T13:21:05.261Z,101156.45
2017-10-27T13:23:33.179Z,101165.58
2017-10-27T13:26:03.638Z,101174.23
2017-10-27T13:28:41.457Z,101174.22
2017-10-27T13:31:09.583Z,101184.25
2017-10-27T13:33:37.890Z,101190.23
2017-10-27T13:36:05.814Z,101192.34
2017-10-27T13:38:34.142Z,101202.41
2017-10-27T13:41:02.084Z,101215.03
2017-10-27T13:43:29.996Z,101212.63
2017-10-27T13:45:57.973Z,101219.36
2017-10-27T13:48:25.967Z,101224.53
2017-10-27T13:50:54.308Z,101227.61
2017-10-27T13:53:23.125Z,101228.12
2017-10-27T13:55:51.114Z,101230.88
2017-10-27T13:58:19.472Z,101241.98
2017-10-27T14:00:47.397Z,101236.17
2017-10-27T14:03:15.302Z,101240.89
2017-10-27T14:05:43.236Z,101252.35
2017-10-27T14:08:11.140Z,101246.50
2017-10-27T14:10:39.056Z,101248.06
2017-10-27T14:13:06.964Z,101255.15
2017-10-27T14:15:35.027Z,101263.33
2017-10-27T14:18:03.020Z,101266.14
2017-10-27T14:20:31.030Z,101270.87
2017-10-27T14:22:58.931Z,101278.07
2017-10-27T14:25:26.851Z,101271.53
2017-10-27T14:29:52.657Z,101277.06
2017-10-27T14:32:20.597Z,101277.22
2017-10-27T14:34:48.516Z,101278.17
2017-10-27T14:37:16.864Z,101286.56
2017-10-27T14:40:31.622Z,101289.34
2017-10-27T14:42:59.537Z,101289.94
2017-10-27T14:45:27.551Z,101290.75
2017-10-27T14:47:55.464Z,101291.06
2017-10-27T14:53:28.561Z,101295.48
2017-10-27T14:55:56.549Z,101302.39
2017-10-27T14:58:24.453Z,101303.15
2017-10-27T15:00:52.375Z,101305.21
2017-10-27T15:03:20.299Z,101313.07
2017-10-27T15:05:48.284Z,101321.45
2017-10-27T15:08:16.193Z,101319.62
2017-10-27T15:10:44.256Z,101323.52
2017-10-27T15:13:12.605Z,101317.43
2017-10-27T15:15:40.523Z,101318.98
2017-10-27T15:18:08.838Z,101314.83
2017-10-27T15:20:36.774Z,101323.54
2017-10-27T15:23:05.128Z,101327.30
2017-10-27T15:25:33.067Z,101335.46
2017-10-27T15:28:00.995Z,101335.08
2017-10-27T15:30:29.313Z,101340.23
2017-10-27T15:32:57.240Z,101352.97
2017-10-27T15:35:25.160Z,101366.92
2017-10-27T15:37:53.067Z,101376.77
2017-10-27T15:40:21.397Z,101379.86
2017-10-27T15:42:49.381Z,101385.05
2017-10-27T15:45:17.361Z,101395.91
2017-10-27T15:47:45.268Z,101404.05
2017-10-27T15:50:13.210Z,101403.57
2017-10-27T15:52:41.516Z,101403.45
2017-10-27T15:55:09.441Z,101417.72
2017-10-27T15:57:37.367Z,101411.45
2017-10-27T16:00:05.299Z,101418.23
2017-10-27T16:02:33.620Z,101422.53
2017-10-27T16:05:01.545Z,101434.00
2017-10-27T16:07:29.888Z,101433.70
2017-10-27T16:09:57.794Z,101440.67
2017-10-27T16:12:26.110Z,101445.88
2017-10-27T16:14:54.115Z,101447.02
2017-10-27T16:17:22.115Z,101453.50
2017-10-27T16:19:50.437Z,101452.96
2017-10-27T16:22:18.421Z,101445.25
2017-10-27T16:24:46.329Z,101443.42
2017-10-27T16:27:14.667Z,101450.23
2017-10-27T16:29:42.589Z,101450.27
2017-10-27T16:32:10.505Z,101451.58
2017-10-27T16:34:38.472Z,101466.03
2017-10-27T16:37:06.393Z,101464.52
2017-10-27T16:39:34.334Z,101465.94
2017-10-27T16:42:02.693Z,101468.13
2017-10-27T16:44:30.622Z,101472.04
2017-10-27T16:46:58.525Z,101468.14
2017-10-27T16:49:26.535Z,101460.78
2017-10-27T16:51:54.876Z,101470.39
2017-10-27T16:54:22.783Z,101472.56
2017-10-27T16:56:50.705Z,101482.13
2017-10-27T16:59:18.637Z,101494.23
2017-10-27T17:01:46.548Z,101492.48
2017-10-27T17:04:14.456Z,101495.22
2017-10-27T17:06:42.386Z,101496.77
2017-10-27T17:09:10.307Z,101481.38
2017-10-27T17:11:38.229Z,101492.71
2017-10-27T17:14:06.600Z,101491.08
2017-10-27T17:16:34.525Z,101502.38
2017-10-27T17:19:02.529Z,101513.28
2017-10-27T17:21:30.453Z,101516.91
2017-10-27T17:23:58.381Z,101517.08
2017-10-27T17:26:26.325Z,101516.83
2017-10-27T17:28:54.232Z,101516.53
2017-10-27T17:31:22.544Z,101520.64
2017-10-27T17:33:50.552Z,101519.22
2017-10-27T17:36:18.470Z,101528.07
2017-10-27T17:38:46.385Z,101519.51
2017-10-27T17:41:14.300Z,101528.66
2017-10-27T17:43:42.225Z,101527.81
2017-10-27T17:46:10.163Z,101523.50
2017-10-27T17:48:38.065Z,101527.47
2017-10-27T17:51:06.040Z,101523.47
2017-10-27T17:53:33.996Z,101528.72
2017-10-27T17:56:01.964Z,101534.41
2017-10-27T17:58:29.873Z,101527.83
2017-10-27T18:00:57.788Z,101518.19
2017-10-27T18:03:25.771Z,101523.45
2017-10-27T18:05:53.756Z,101529.44
2017-10-27T18:08:21.715Z,101526.38
2017-10-27T18:10:49.640Z,101525.08
2017-10-27T18:13:17.545Z,101531.02
2017-10-27T18:15:45.885Z,101527.48
2017-10-27T18:18:13.793Z,101535.99
2017-10-27T18:20:41.790Z,101534.12
2017-10-27T18:23:09.823Z,101532.26
2017-10-27T18:25:38.136Z,101540.14
2017-10-27T18:28:07.363Z,101547.45
2017-10-27T18:30:35.636Z,101545.89
2017-10-27T18:33:04.678Z,101533.20
2017-10-27T18:35:32.930Z,101530.61
2017-10-27T18:38:02.204Z,101538.11
2017-10-27T18:40:31.108Z,101535.56
2017-10-27T18:42:59.453Z,101533.22
2017-10-27T18:45:28.672Z,101535.89
2017-10-27T18:47:56.783Z,101540.83
2017-10-27T18:50:25.132Z,101542.59
2017-10-27T18:52:53.061Z,101537.41
2017-10-27T18:55:21.412Z,101547.03
2017-10-27T18:57:49.341Z,101553.55
2017-10-27T19:00:17.258Z,101550.77
2017-10-27T19:02:45.181Z,101554.30
2017-10-27T19:05:13.101Z,101553.22
2017-10-27T19:07:41.018Z,101563.79
2017-10-27T19:10:08.937Z,101559.05
2017-10-27T19:12:36.841Z,101556.84
2017-10-27T19:15:04.864Z,101560.30
2017-10-27T19:17:32.829Z,101556.29
2017-10-27T19:20:00.742Z,101566.27
2017-10-27T19:22:28.677Z,101560.94
2017-10-27T19:24:56.592Z,101566.93
2017-10-27T19:27:24.610Z,101560.01
2017-10-27T19:29:52.560Z,101555.03
2017-10-27T19:32:20.516Z,101561.48
2017-10-27T19:34:48.507Z,101555.58
2017-10-27T19:37:16.483Z,101549.87
2017-10-27T19:39:44.391Z,101548.30
2017-10-27T19:42:12.318Z,101556.59
2017-10-27T19:44:40.228Z,101556.27
2017-10-27T19:47:08.135Z,101549.34
2017-10-27T19:49:36.069Z,101545.42
2017-10-27T19:52:03.992Z,101554.66
2017-10-27T19:54:31.967Z,101548.34
2017-10-27T19:56:59.897Z,101547.70
2017-10-27T19:59:27.828Z,101536.31
2017-10-27T20:01:56.137Z,101535.22
2017-10-27T20:04:24.160Z,101530.80
2017-10-27T20:06:52.563Z,101525.01
2017-10-27T20:09:20.638Z,101525.61
2017-10-27T20:11:48.585Z,101524.69
2017-10-27T20:14:16.897Z,101537.54
2017-10-27T20:16:44.809Z,101523.08
2017-10-27T20:19:12.714Z,101523.92
2017-10-27T20:21:40.797Z,101523.87
2017-10-27T20:24:08.706Z,101529.83
2017-10-27T20:26:36.619Z,101514.63
2017-10-27T20:29:04.562Z,101512.95
2017-10-27T20:31:32.876Z,101513.92
2017-10-27T20:34:00.775Z,101520.49
2017-10-27T20:36:28.724Z,101516.66
2017-10-27T20:38:56.799Z,101521.35
2017-10-27T20:41:24.716Z,101515.75
2017-10-27T20:46:44.112Z,101496.73
2017-10-27T20:49:12.516Z,101492.22
2017-10-27T20:51:40.691Z,101490.49
2017-10-27T20:54:08.596Z,101497.08
2017-10-27T20:56:36.508Z,101502.13
2017-10-27T20:59:04.818Z,101497.77
2017-10-27T21:01:32.958Z,101500.78
2017-10-27T21:04:01.257Z,101508.53
2017-10-27T21:06:29.161Z,101519.67
2017-10-27T21:08:57.058Z,101520.72
2017-10-27T21:11:25.378Z,101516.88
2017-10-27T21:13:53.298Z,101510.36
2017-10-27T21:16:21.203Z,101502.27
2017-10-27T21:18:49.107Z,101501.09
2017-10-27T21:21:17.377Z,101509.94
2017-10-27T21:23:45.292Z,101518.62
2017-10-27T21:26:13.591Z,101514.84
2017-10-27T21:28:41.492Z,101508.86
2017-10-27T21:31:09.402Z,101504.73
2017-10-27T21:33:37.703Z,101502.61
2017-10-27T21:36:05.602Z,101504.14
2017-10-27T21:38:33.510Z,101513.78
2017-10-27T21:41:01.807Z,101506.02
2017-10-27T21:43:29.739Z,101512.95
2017-10-27T21:45:57.684Z,101509.09
2017-10-27T21:48:25.604Z,101503.20
2017-10-27T21:50:53.519Z,101507.11
